Tiempo atmosférico en la estación meteorológica de Puerto El Pico, Ávila (1285 m.)



Fecha
DESCASC
Temp. máxima en grados centígrados (hora)
DESCASC
Temp. mínima en grados centígrados (hora)
DESCASC
Temp. media en grados centígrados
DESCASC
Racha de viento máxima en m/sg (hora)
DESCASC
Velocidad máxima media en intervalos de 10 minutos(hora)
DESCASC
Precipitaciones diarias en mm
DESCASC
Precipitaciones de 00:00 a 06:00 en mm
DESCASC
Precipitaciones de 06:00 a 12:00 en mm
DESCASC
Precipitaciones de 12:00 a 18:00 en mm
DESCASC
Precipitaciones de 18:00 a 24:00 en mm
DESCASC
21-03-2019 11.3 (16:20) -8.6 (07:20) 1.3 8.33 (15:50) 4.44 (13:00) 0 0 0 0 0
20-03-2019 11.2 (17:00) -5.3 (07:30) 2.9 8.06 (14:30) 5 (01:20) 0 0 0 0 0
19-03-2019 9.8 (15:20) -5.2 (04:10) 2.3 14.44 (16:00) 10 (16:00) 0 0 0 0 0
18-03-2019 11.1 (15:20) -4.5 (08:20) 3.3 8.33 (17:30) 6.11 (17:40) 0 0 0 0 0
17-03-2019 14.7 (10:40) -3.7 (-00:0) 5.5 8.89 (15:00) 5 (15:00) 0 0 0 0 0
16-03-2019 18.5 (14:50) -4.7 (-00:0) 6.9 10.83 (12:50) 5.28 (15:10) 0 0 0 0 0
15-03-2019 18.5 (11:50) -6.4 (-00:0) 6 8.61 (14:50) 5.28 (15:00) 0 0 0 0 0
14-03-2019 15.6 (15:40) -6.2 (-00:0) 4.7 11.94 (14:20) 6.94 (14:20) 0 0 0 0 0
13-03-2019 8.2 (15:40) -2.6 (-00:0) 2.8 12.22 (16:50) 8.61 (11:30) 0 0 0 0 0
12-03-2019 15.4 (15:30) -4.6 (-00:0) 5.4 10.28 (16:50) 6.11 (12:40) 0 0 0 0 0
11-03-2019 16.2 (15:10) -0.2 (00:00) 8 7.22 (14:00) 5 (10:10) 0 0 0 0 0
10-03-2019 19.9 (14:00) -2.7 (-00:0) 8.6 7.78 (15:50) 5.28 (17:40) 0 0 0 0 0
09-03-2019 14.2 (15:50) -4 (-00:0) 5.1 8.33 (14:10) 5 (13:50) 0 0 0 0 0
08-03-2019 11.5 (16:00) -1.4 (-00:0) 5.1 9.72 (12:20) 6.11 (12:10) 0 0 0 0 0
07-03-2019 6.5 (10:30) -3.9 (-00:0) 1.3 10.28 (14:10) 5.56 (13:20) 0.2 0 0 0 0.2
06-03-2019 7.3 (16:50) 1.4 (00:00) 4.4 21.39 (05:00) 10.83 (05:00) 77 13.6 50.2 12.8 0.4
05-03-2019 7.7 (13:40) -1.4 (-00:0) 3.1 -- (--) -- (--) 22.2 0 0 0 22.2
04-03-2019 9.6 (16:30) 4.5 (00:00) 7.1 10.28 (16:50) 6.11 (05:00) 0 0 0 0 0
03-03-2019 14.2 (14:40) -5.9 (-00:0) 4.1 12.5 (14:30) 7.5 (15:40) 0 0 0 0 0
02-03-2019 15.6 (16:30) -1.7 (-00:0) 7 8.61 (15:50) 5 (15:40) 0 0 0 0 0
01-03-2019 14.5 (15:10) -5.8 (-00:0) 4.3 7.78 (15:20) 4.72 (13:30) 0 0 0 0 0
28-02-2019 15.1 (13:20) -5.6 (-00:0) 4.8 6.67 (14:30) 3.89 (13:50) 0 0 0 0 0
27-02-2019 15.4 (15:50) -5.8 (-00:0) 4.8 8.89 (12:30) 4.44 (12:50) 0 0 0 0 0
26-02-2019 15.5 (16:30) -5.1 (-00:0) 5.2 9.17 (12:40) 4.72 (12:40) 0 0 0 0 0
25-02-2019 16.3 (16:20) -6.1 (-00:0) 5.1 8.61 (13:40) 5.28 (13:40) 0 0 0 0 0
24-02-2019 15.8 (14:30) -4.8 (-00:0) 5.5 7.5 (16:10) 4.17 (16:10) 0 0 0 0 0
23-02-2019 15.5 (15:40) -6.9 (-00:0) 4.3 9.17 (15:50) 6.39 (16:00) 0 0 0 0 0
22-02-2019 14.3 (15:40) -6.8 (-00:0) 3.8 10 (13:20) 5 (16:20) 0 0 0 0 0
21-02-2019 12.2 (16:40) -5.9 (-00:0) 3.1 7.78 (15:20) 4.44 (15:20) 0 0 0 0 0
20-02-2019 10 (15:10) -4.8 (-00:0) 2.6 8.61 (15:10) 4.72 (14:20) 0 0 0 0 0

Gráficas

Temp. máximas Temp. mínimas Temp. medias Precipitaciones Rachas de viento máximas Velocidades máximas media en intervalos de 10 minutos

Datos horarios

Fecha y hora oficial Temperatura (ºC) Velocidad del viento (km/h) Dirección del viento Racha (km/h) Dirección de racha Precipitación (mm) Presión (hPa) Tendencia (hPa) Humedad (%)
2019-03-21 23:00:00 -3.2 2 Sur 6 Sur 0 -- -- 77
2019-03-21 22:00:00 -1.9 3 Sur 5 Sur 0 -- -- 71
2019-03-21 21:00:00 1.5 3 Nordeste 17 Sur 0 -- -- 59
2019-03-21 20:00:00 4.9 10 Sur 24 Sur 0 -- -- 48
2019-03-21 19:00:00 6.5 12 Sur 26 Sudoeste 0 -- -- 51
2019-03-21 18:00:00 9.9 15 Sur 26 Sur 0 -- -- 45
2019-03-21 17:00:00 10.8 15 Sur 27 Sur 0 -- -- 44
2019-03-21 16:00:00 10.9 15 Sur 30 Sudoeste 0 -- -- 42
2019-03-21 15:00:00 10.6 14 Sur 28 Sur 0 -- -- 42
2019-03-21 14:00:00 9.5 15 Sur 26 Sur 0 -- -- 45
2019-03-21 13:00:00 8.6 16 Sur 26 Sudoeste 0 -- -- 46
2019-03-21 12:00:00 7.9 15 Sur 24 Sur 0 -- -- 47
2019-03-21 11:00:00 7.4 12 Sur 22 Sur 0 -- -- 49
2019-03-21 10:00:00 5.1 2 Sudoeste 4 Sudoeste 0 -- -- 61
2019-03-21 09:00:00 -1.5 0 Calma 4 Sudeste 0 -- -- 85
2019-03-21 08:00:00 -8.2 0 Calma 4 Sudoeste 0 -- -- 96
2019-03-21 07:00:00 -8.5 0 Calma 4 Sudoeste 0 -- -- 92
2019-03-21 06:00:00 -7.6 0 Calma 3 Sudoeste 0 -- -- 94
2019-03-21 05:00:00 -6.8 2 Oeste 4 Sudoeste 0 -- -- 94
2019-03-21 04:00:00 -7 0 Calma 4 Sudeste 0 -- -- 95
2019-03-21 03:00:00 -6.3 0 Calma 3 Sur 0 -- -- 92
2019-03-21 02:00:00 -5.6 2 Sur 3 Sur 0 -- -- 91
2019-03-21 01:00:00 -4.9 0 Calma 4 Sur 0 -- -- 90
2019-03-21 00:00:00 -4 2 Sur 8 Sur 0 -- -- 85
2019-03-20 23:00:00 -3.3 5 Sur 8 Sur 0 -- -- 83
2019-03-20 22:00:00 -2 3 Sur 11 Sur 0 -- -- 78
2019-03-20 21:00:00 -1.1 4 Sur 12 Sur 0 -- -- 77
2019-03-20 20:00:00 2.3 7 Sudoeste 12 Sudoeste 0 -- -- 68
2019-03-20 19:00:00 6 5 Sudoeste 18 Sur 0 -- -- 55
2019-03-20 18:00:00 10.1 9 Sudoeste 21 Oeste 0 -- -- 41
2019-03-20 17:00:00 11.2 6 Sudoeste 19 Sudoeste 0 -- -- 40
2019-03-20 16:00:00 11 7 Este 19 Nordeste 0 -- -- 40
2019-03-20 15:00:00 9.4 9 Norte 29 Norte 0 -- -- 46
2019-03-20 14:00:00 8.2 11 Nordeste 25 Este 0 -- -- 44
2019-03-20 13:00:00 7.5 11 Norte 27 Nordeste 0 -- -- 46
2019-03-20 12:00:00 5.8 13 Nordeste 25 Nordeste 0 -- -- 45
2019-03-20 11:00:00 5.6 3 Sudoeste 15 Nordeste 0 -- -- 57
2019-03-20 10:00:00 3.8 5 Norte 10 Norte 0 -- -- 67
2019-03-20 09:00:00 -0.9 3 Sudeste 5 Este 0 -- -- 90
2019-03-20 08:00:00 -4.9 2 Nordeste 5 Este 0 -- -- 96
2019-03-20 07:00:00 -5.1 0 Calma 8 Nordeste 0 -- -- 93
2019-03-20 06:00:00 -3.4 5 Norte 12 Este 0 -- -- 89
2019-03-20 05:00:00 -2.8 4 Nordeste 12 Nordeste 0 -- -- 87
2019-03-20 04:00:00 -1.4 6 Nordeste 20 Norte 0 -- -- 86
2019-03-20 03:00:00 0.9 7 Oeste 27 Sudoeste 0 -- -- 74
2019-03-20 02:00:00 1.1 13 Noroeste 25 Norte 0 -- -- 75
2019-03-20 01:00:00 1.3 16 Norte 25 Noroeste 0 -- -- 76
2019-03-20 00:00:00 2 12 Noroeste 23 Norte 0 -- -- 74
2019-03-19 23:00:00 2.7 5 Noroeste 15 Oeste 0 -- -- 72
2019-03-19 22:00:00 3.1 7 Norte 18 Norte 0 -- -- 74
2019-03-19 21:00:00 4 10 Nordeste 18 Nordeste 0 -- -- 67
2019-03-19 20:00:00 5.1 19 Nordeste 38 Norte 0 -- -- 63
2019-03-19 19:00:00 6.7 24 Norte 48 Norte 0 -- -- 55
2019-03-19 18:00:00 8 29 Norte 51 Norte 0 -- -- 48
2019-03-19 17:00:00 9.6 25 Norte 47 Norte 0 -- -- 46
2019-03-19 16:00:00 9.3 36 Norte 52 Norte 0 -- -- 52
2019-03-19 15:00:00 9.6 30 Norte 45 Norte 0 -- -- 49
2019-03-19 14:00:00 8.3 24 Norte 43 Nordeste 0 -- -- 51
2019-03-19 13:00:00 7.8 30 Norte 48 Norte 0 -- -- 56
2019-03-19 12:00:00 7.6 24 Norte 39 Norte 0 -- -- 55
2019-03-19 11:00:00 6.1 26 Norte 36 Norte 0 -- -- 58
2019-03-19 10:00:00 5.4 26 Norte 45 Norte 0 -- -- 59
2019-03-19 09:00:00 3.5 4 Sudoeste 27 Norte 0 -- -- 63
2019-03-19 08:00:00 0.5 14 Nordeste 20 Norte 0 -- -- 75
2019-03-19 07:00:00 -0.4 12 Norte 19 Norte 0 -- -- 76
2019-03-19 06:00:00 -4 3 Nordeste 11 Nordeste 0 -- -- 87
2019-03-19 05:00:00 -3.8 0 Calma 5 Nordeste 0 -- -- 86
2019-03-19 04:00:00 -4.6 0 Calma 5 Este 0 -- -- 90
2019-03-19 03:00:00 -4.9 0 Calma 6 Sudeste 0 -- -- 91
2019-03-19 02:00:00 -4.5 2 Este 4 Sudoeste 0 -- -- 86
2019-03-19 01:00:00 -4 2 Sur 6 Sudeste 0 -- -- 85
2019-03-19 00:00:00 -3 0 Calma 6 Sudeste 0 -- -- 82
2019-03-18 23:00:00 -1.7 3 Este 10 Sudeste 0 -- -- 75
2019-03-18 22:00:00 -0.6 5 Sudeste 10 Sudeste 0 -- -- 70
2019-03-18 21:00:00 1.7 4 Nordeste 20 Nordeste 0 -- -- 59
2019-03-18 20:00:00 4.8 11 Nordeste 23 Norte 0 -- -- 52
2019-03-18 19:00:00 6.4 14 Norte 28 Norte 0 -- -- 48
2019-03-18 18:00:00 9.5 17 Norte 30 Norte 0 -- -- 40
2019-03-18 17:00:00 10 15 Norte 27 Norte 0 -- -- 38
2019-03-18 16:00:00 10.2 15 Norte 27 Nordeste 0 -- -- 33
2019-03-18 15:00:00 10.1 11 Nordeste 23 Este 0 -- -- 31
2019-03-18 14:00:00 9.4 13 Norte 28 Nordeste 0 -- -- 31
2019-03-18 13:00:00 8 14 Nordeste 25 Norte 0 -- -- 36
2019-03-18 12:00:00 7.1 9 Nordeste 20 Nordeste 0 -- -- 41
2019-03-18 11:00:00 6.4 13 Norte 21 Nordeste 0 -- -- 39
2019-03-18 10:00:00 4.9 10 Norte 15 Norte 0 -- -- 57
2019-03-18 09:00:00 -0.5 5 Nordeste 8 Este 0 -- -- 76
2019-03-18 08:00:00 -4.3 4 Norte 7 Nordeste 0 -- -- 96
2019-03-18 07:00:00 -4.1 0 Calma 3 Este 0 -- -- 96
2019-03-18 06:00:00 -2.1 0 Calma 12 Nordeste 0 -- -- 92
2019-03-18 05:00:00 -0.5 9 Norte 16 Norte 0 -- -- 88
2019-03-18 04:00:00 1.6 8 Norte 18 Norte 0 -- -- 85
2019-03-18 03:00:00 3 4 Norte 14 Norte 0 -- -- 84
2019-03-18 02:00:00 3.2 4 Norte 11 Norte 0 -- -- 85
2019-03-18 01:00:00 1.6 0 Calma 4 Sudeste 0 -- -- 90
2019-03-18 00:00:00 0.1 0 Calma 9 Este 0 -- -- 89
2019-03-17 23:00:00 2.6 4 Este 14 Nordeste 0 -- -- 81
2019-03-17 22:00:00 2.6 4 Nordeste 12 Este 0 -- -- 84
2019-03-17 21:00:00 3.6 4 Sur 22 Noroeste 0 -- -- 80
2019-03-17 20:00:00 6 8 Norte 17 Norte 0 -- -- 73
2019-03-17 19:00:00 8.2 10 Norte 28 Norte 0 -- -- 63
2019-03-17 18:00:00 10.4 11 Norte 28 Norte 0 -- -- 56
2019-03-17 17:00:00 11.3 17 Norte 32 Norte 0 -- -- 53
2019-03-17 16:00:00 11.8 15 Norte 31 Norte 0 -- -- 52
2019-03-17 15:00:00 13.2 18 Norte 32 Norte 0 -- -- 47
2019-03-17 14:00:00 13.8 15 Norte 25 Norte 0 -- -- 44
2019-03-17 13:00:00 13.7 14 Nordeste 30 Norte 0 -- -- 33
2019-03-17 12:00:00 12 9 Norte 25 Norte 0 -- -- 38
2019-03-17 11:00:00 14 10 Noroeste 27 Noroeste 0 -- -- 30
2019-03-17 10:00:00 11.8 10 Noroeste 23 Oeste 0 -- -- 36
2019-03-17 09:00:00 2.1 3 Sur 8 Oeste 0 -- -- 81
2019-03-17 08:00:00 -2.6 0 Calma 6 Norte 0 -- -- 92
2019-03-17 07:00:00 -3.1 3 Sur 6 Sudeste 0 -- -- 90
2019-03-17 06:00:00 -3.7 3 Sur 8 Sudoeste 0 -- -- 92
2019-03-17 05:00:00 -3.5 3 Sudeste 8 Sur 0 -- -- 91
2019-03-17 04:00:00 -2.5 0 Calma 8 Sudoeste 0 -- -- 87
2019-03-17 03:00:00 -2.5 3 Este 9 Sur 0 -- -- 87
2019-03-17 02:00:00 -2.4 3 Sur 7 Sudoeste 0 -- -- 82
2019-03-17 01:00:00 -1.3 4 Sur 8 Sudeste 0 -- -- 79
2019-03-17 00:00:00 -0.9 4 Sur 7 Sur 0 -- -- 72
2019-03-16 23:00:00 0.5 3 Sur 9 Sur 0 -- -- 66
2019-03-16 22:00:00 1.3 4 Sudeste 9 Sudoeste 0 -- -- 64
2019-03-16 21:00:00 3.1 2 Sur 10 Sudoeste 0 -- -- 57
2019-03-16 20:00:00 7.9 7 Sur 16 Sur 0 -- -- 46
2019-03-16 19:00:00 13.1 10 Sur 28 Sudoeste 0 -- -- 37
2019-03-16 18:00:00 17.3 16 Sur 31 Sudoeste 0 -- -- 27
2019-03-16 17:00:00 17.8 17 Sur 35 Sudoeste 0 -- -- 27
2019-03-16 16:00:00 18.3 17 Sur 35 Sur 0 -- -- 22
2019-03-16 15:00:00 18.4 16 Sur 31 Sudoeste 0 -- -- 27
2019-03-16 14:00:00 17.7 15 Sur 27 Sudoeste 0 -- -- 28
2019-03-16 13:00:00 16.5 16 Sur 39 Sur 0 -- -- 30
2019-03-16 12:00:00 16.3 13 Sur 27 Sur 0 -- -- 31
2019-03-16 11:00:00 16 12 Sur 30 Sur 0 -- -- 32
2019-03-16 10:00:00 9.9 0 Calma 9 Sudoeste 0 -- -- 49
2019-03-16 09:00:00 0.2 2 Sudeste 5 Sudeste 0 -- -- 89
2019-03-16 08:00:00 -4.3 0 Calma 6 Sudoeste 0 -- -- 94
2019-03-16 07:00:00 -4.4 0 Calma 8 Sur 0 -- -- 94
2019-03-16 06:00:00 -4.5 3 Sur 7 Sur 0 -- -- 93
2019-03-16 05:00:00 -4.5 2 Sur 6 Sur 0 -- -- 93
2019-03-16 04:00:00 -4.2 0 Calma 4 Sudoeste 0 -- -- 91
2019-03-16 03:00:00 -3.6 2 Sur 5 Sur 0 -- -- 87
2019-03-16 02:00:00 -3.2 0 Calma 4 Sur 0 -- -- 83
2019-03-16 01:00:00 -3 2 Sur 4 Sur 0 -- -- 77
2019-03-16 00:00:00 -1.9 3 Sur 5 Sur 0 -- -- 74
2019-03-15 23:00:00 -0.2 2 Sur 6 Sur 0 -- -- 68
2019-03-15 22:00:00 1.4 2 Sur 8 Sur 0 -- -- 63
2019-03-15 21:00:00 3.4 4 Sur 9 Sur 0 -- -- 57
2019-03-15 20:00:00 6.2 4 Sur 13 Sur 0 -- -- 53
2019-03-15 19:00:00 11.9 8 Sur 19 Sudoeste 0 -- -- 45
2019-03-15 18:00:00 17.4 12 Sur 26 Sudoeste 0 -- -- 32
2019-03-15 17:00:00 17.8 16 Sur 27 Sur 0 -- -- 32
2019-03-15 16:00:00 17.9 17 Sur 30 Sudoeste 0 -- -- 31
2019-03-15 15:00:00 17.4 19 Sur 31 Sudoeste 0 -- -- 31
2019-03-15 14:00:00 17.4 15 Sur 25 Sur 0 -- -- 32
2019-03-15 13:00:00 17.6 13 Sur 21 Sudoeste 0 -- -- 27
2019-03-15 12:00:00 18.4 6 Nordeste 10 Sudoeste 0 -- -- 22
2019-03-15 11:00:00 15.6 0 Calma 3 Norte 0 -- -- 27
2019-03-15 10:00:00 10.5 0 Calma 2 Oeste 0 -- -- 38
2019-03-15 09:00:00 -1.7 0 Calma 3 Sur 0 -- -- 71
2019-03-15 08:00:00 -5.5 2 Sur 4 Sur 0 -- -- 78
2019-03-15 07:00:00 -6.1 3 Sur 4 Sudoeste 0 -- -- 79
2019-03-15 06:00:00 -5.8 3 Sur 4 Sur 0 -- -- 76
2019-03-15 05:00:00 -5.6 0 Calma 8 Sur 0 -- -- 72
2019-03-15 04:00:00 -5.9 0 Calma 4 Sur 0 -- -- 71
2019-03-15 03:00:00 -5.9 0 Calma 4 Sudeste 0 -- -- 68
2019-03-15 02:00:00 -5.8 2 Sur 4 Sur 0 -- -- 67
2019-03-15 01:00:00 -5.3 0 Calma 4 Sudoeste 0 -- -- 68
2019-03-15 00:00:00 -4.3 0 Calma 5 Sudeste 0 -- -- 64
2019-03-14 23:00:00 -3.1 3 Sur 5 Sudoeste 0 -- -- 59
2019-03-14 22:00:00 -1.9 0 Calma 8 Sudeste 0 -- -- 56
2019-03-14 21:00:00 0.4 3 Sur 10 Sudoeste 0 -- -- 49
2019-03-14 20:00:00 3.3 6 Sur 14 Sur 0 -- -- 45
2019-03-14 19:00:00 8.1 4 Sur 24 Norte 0 -- -- 31
2019-03-14 18:00:00 13.8 13 Norte 24 Norte 0 -- -- 20
2019-03-14 17:00:00 14.9 16 Norte 25 Norte 0 -- -- 20
2019-03-14 16:00:00 15.4 15 Norte 30 Norte 0 -- -- 18
2019-03-14 15:00:00 15.2 20 Norte 43 Norte 0 -- -- 21
2019-03-14 14:00:00 15.3 8 Nordeste 21 Norte 0 -- -- 21
2019-03-14 13:00:00 14.5 6 Nordeste 17 Norte 0 -- -- 21
2019-03-14 12:00:00 12.8 9 Norte 14 Norte 0 -- -- 24
2019-03-14 11:00:00 10.9 5 Nordeste 10 Nordeste 0 -- -- 29
2019-03-14 10:00:00 7.5 0 Calma 6 Este 0 -- -- 46
2019-03-14 09:00:00 -2.9 3 Sur 6 Este 0 -- -- 95
2019-03-14 08:00:00 -5.7 0 Calma 4 Sudoeste 0 -- -- 95
2019-03-14 07:00:00 -5.9 0 Calma 4 Sur 0 -- -- 95
2019-03-14 06:00:00 -5.2 0 Calma 6 Sudeste 0 -- -- 94
2019-03-14 05:00:00 -5.2 2 Nordeste 6 Sudeste 0 -- -- 93
2019-03-14 04:00:00 -4.6 0 Calma 6 Norte 0 -- -- 96
2019-03-14 03:00:00 -4.5 0 Calma 4 Este 0 -- -- 90
2019-03-14 02:00:00 -3.7 2 Sur 9 Noroeste 0 -- -- 88
2019-03-14 01:00:00 -1.8 9 Nordeste 15 Nordeste 0 -- -- 81
2019-03-14 00:00:00 -1.2 0 Calma 13 Nordeste 0 -- -- 79
2019-03-13 23:00:00 -1.4 4 Norte 16 Norte 0 -- -- 78
2019-03-13 22:00:00 1.5 12 Nordeste 23 Norte 0 -- -- 67
2019-03-13 21:00:00 0 8 Norte 15 Norte 0 -- -- 71
2019-03-13 20:00:00 3.6 6 Norte 26 Norte 0 -- -- 61
2019-03-13 19:00:00 4.5 18 Norte 34 Norte 0 -- -- 58
2019-03-13 18:00:00 7.1 24 Norte 39 Nordeste 0 -- -- 50
2019-03-13 17:00:00 7.9 28 Norte 44 Norte 0 -- -- 49
2019-03-13 16:00:00 8 23 Norte 39 Norte 0 -- -- 44
2019-03-13 15:00:00 7.9 23 Norte 43 Norte 0 -- -- 47
2019-03-13 14:00:00 7.6 25 Norte 36 Norte 0 -- -- 46
2019-03-13 13:00:00 6.8 25 Norte 40 Norte 0 -- -- 48
2019-03-13 12:00:00 5.9 30 Norte 41 Norte 0 -- -- 46
2019-03-13 11:00:00 4.3 29 Norte 42 Norte 0 -- -- 57
2019-03-13 10:00:00 3.7 26 Norte 38 Norte 0 -- -- 63
2019-03-13 09:00:00 1.7 27 Norte 38 Norte 0 -- -- 70
2019-03-13 08:00:00 1.7 27 Norte 41 Norte 0 -- -- 83
2019-03-13 07:00:00 3.2 29 Norte 40 Norte 0 -- -- 88
2019-03-13 06:00:00 4.2 24 Norte 38 Norte 0 -- -- 84
2019-03-13 05:00:00 4.5 13 Norte 22 Norte 0 -- -- 89
2019-03-13 04:00:00 5.1 5 Norte 13 Este 0 -- -- 86
2019-03-13 03:00:00 5.3 4 Este 9 Norte 0 -- -- 82
2019-03-13 02:00:00 4 0 Calma 12 Este 0 -- -- 88
2019-03-13 01:00:00 6.1 3 Este 18 Norte 0 -- -- 80
2019-03-13 00:00:00 5.3 2 Nordeste 13 Norte 0 -- -- 92
2019-03-12 23:00:00 3.6 2 Sur 6 Sur 0 -- -- 91
2019-03-12 22:00:00 4.4 3 Sur 9 Este 0 -- -- 89
2019-03-12 21:00:00 6.7 6 Sudeste 10 Sudeste 0 -- -- 83
2019-03-12 20:00:00 8.7 3 Sudeste 13 Norte 0 -- -- 76
2019-03-12 19:00:00 10.8 5 Sur 21 Sudoeste 0 -- -- 70
2019-03-12 18:00:00 15.1 10 Sudoeste 31 Sudoeste 0 -- -- 54
2019-03-12 17:00:00 14.9 21 Sur 37 Sur 0 -- -- 65
2019-03-12 16:00:00 15.4 17 Sudoeste 33 Sur 0 -- -- 63
2019-03-12 15:00:00 14.8 19 Sur 34 Sudoeste 0 -- -- 62
2019-03-12 14:00:00 14.8 19 Sur 33 Sudoeste 0 -- -- 61
2019-03-12 13:00:00 13.6 20 Sur 36 Sur 0 -- -- 63
2019-03-12 12:00:00 12.3 21 Sur 34 Sudoeste 0 -- -- 66
2019-03-12 11:00:00 12.7 17 Sur 33 Sur 0 -- -- 64
2019-03-12 10:00:00 10.1 15 Sur 29 Sur 0 -- -- 81
2019-03-12 09:00:00 -2.6 0 Calma 4 Sudeste 0 -- -- 99
2019-03-12 08:00:00 -4.6 0 Calma 3 Sudoeste 0 -- -- 98
2019-03-12 07:00:00 -4.2 0 Calma 3 Sur 0 -- -- 98
2019-03-12 06:00:00 -4 0 Calma 3 Sudoeste 0 -- -- 99
2019-03-12 05:00:00 -3.6 0 Calma 0 Calma 0 -- -- 100
2019-03-12 04:00:00 -2.7 0 Calma 8 Sudoeste 0 -- -- 99
2019-03-12 03:00:00 -2.6 5 Sur 6 Sur 0 -- -- 98
2019-03-12 02:00:00 -1.6 2 Sur 5 Sur 0 -- -- 99
2019-03-12 01:00:00 -0.9 2 Sur 5 Sur 0 -- -- 99
2019-03-12 00:00:00 -0.2 0 Calma 6 Sur 0 -- -- 100
2019-03-11 23:00:00 1.4 0 Calma 5 Sudoeste 0 -- -- 97
2019-03-11 22:00:00 2.3 0 Calma 7 Sudoeste 0 -- -- 97
2019-03-11 21:00:00 4.4 5 Sur 9 Sudoeste 0 -- -- 92
2019-03-11 20:00:00 7.3 4 Sudoeste 12 Sur 0 -- -- 84
2019-03-11 19:00:00 11.3 6 Sur 23 Sur 0 -- -- 75
2019-03-11 18:00:00 14.9 12 Sur 24 Sur 0 -- -- 61
2019-03-11 17:00:00 15.6 13 Sur 23 Sur 0 -- -- 59
2019-03-11 16:00:00 15.9 13 Sudoeste 24 Sudoeste 0 -- -- 57
2019-03-11 15:00:00 16 12 Sur 23 Sudoeste 0 -- -- 59
2019-03-11 14:00:00 15.2 15 Sur 26 Sudoeste 0 -- -- 59
2019-03-11 13:00:00 14.7 4 Norte 15 Norte 0 -- -- 46
2019-03-11 12:00:00 13.1 4 Nordeste 13 Norte 0 -- -- 56
2019-03-11 11:00:00 10.8 9 Norte 25 Norte 0 -- -- 67
2019-03-11 10:00:00 9.9 17 Norte 25 Norte 0 -- -- 77
2019-03-11 09:00:00 3.8 0 Calma 6 Este 0 -- -- 98
2019-03-11 08:00:00 2.8 2 Sudeste 5 Norte 0 -- -- 97
2019-03-11 07:00:00 3.6 4 Este 16 Nordeste 0 -- -- 93
2019-03-11 06:00:00 6.4 12 Nordeste 20 Sur 0 -- -- 88
2019-03-11 05:00:00 6.2 7 Este 15 Oeste 0 -- -- 91
2019-03-11 04:00:00 6.2 4 Norte 16 Sudoeste 0 -- -- 91
2019-03-11 03:00:00 3.2 8 Sur 13 Sudeste 0 -- -- 96
2019-03-11 02:00:00 2.7 4 Sur 8 Sudoeste 0 -- -- 94
2019-03-11 01:00:00 3.4 5 Norte 17 Este 0 -- -- 83
2019-03-11 00:00:00 2.1 5 Sur 8 Sudoeste 0 -- -- 91
2019-03-10 23:00:00 2.5 4 Sur 6 Sur 0 -- -- 88
2019-03-10 22:00:00 4 2 Sudoeste 7 Sudoeste 0 -- -- 80
2019-03-10 21:00:00 7 2 Noroeste 10 Norte 0 -- -- 65
2019-03-10 20:00:00 10.1 4 Nordeste 19 Noroeste 0 -- -- 55
2019-03-10 19:00:00 12.6 14 Norte 24 Norte 0 -- -- 50
2019-03-10 18:00:00 16.1 18 Norte 28 Norte 0 -- -- 45
2019-03-10 17:00:00 17.6 15 Norte 27 Norte 0 -- -- 44
2019-03-10 16:00:00 18.4 15 Norte 28 Norte 0 -- -- 34
2019-03-10 15:00:00 19.3 16 Norte 27 Norte 0 -- -- 30
2019-03-10 14:00:00 19.9 6 Noroeste 26 Norte 0 -- -- 28
2019-03-10 13:00:00 18.8 14 Norte 26 Norte 0 -- -- 23
2019-03-10 12:00:00 17.6 5 Noroeste 18 Oeste 0 -- -- 34
2019-03-10 11:00:00 15.5 8 Noroeste 18 Oeste 0 -- -- 46
2019-03-10 10:00:00 8.4 2 Nordeste 8 Este 0 -- -- 79
2019-03-10 09:00:00 -0.6 2 Sudeste 4 Sur 0 -- -- 100
2019-03-10 08:00:00 -2.7 0 Calma 4 Sudoeste 0 -- -- 100
2019-03-10 07:00:00 -2.3 0 Calma 6 Sur 0 -- -- 100
2019-03-10 06:00:00 -2 0 Calma 6 Sur 0 -- -- 100
2019-03-10 05:00:00 -1.9 0 Calma 6 Sur 0 -- -- 100
2019-03-10 04:00:00 -1.5 4 Sur 7 Sudoeste 0 -- -- 100
2019-03-10 03:00:00 -1.2 0 Calma 4 Sur 0 -- -- 100
2019-03-10 02:00:00 0.4 0 Calma 6 Oeste 0 -- -- 99
2019-03-10 01:00:00 -0.1 2 Sur 5 Sur 0 -- -- 98
2019-03-10 00:00:00 0.8 2 Sur 5 Sudoeste 0 -- -- 99
2019-03-09 23:00:00 1.4 3 Sur 8 Sur 0 -- -- 97
2019-03-09 22:00:00 2.3 0 Calma 6 Sudoeste 0 -- -- 95
2019-03-09 21:00:00 3.5 3 Sur 8 Sudoeste 0 -- -- 93
2019-03-09 20:00:00 5.2 5 Sur 8 Sur 0 -- -- 90
2019-03-09 19:00:00 9.5 6 Sur 20 Sudoeste 0 -- -- 72
2019-03-09 18:00:00 12.9 11 Sudoeste 23 Sudoeste 0 -- -- 60
2019-03-09 17:00:00 13.3 14 Sudoeste 27 Sur 0 -- -- 58
2019-03-09 16:00:00 13.9 16 Sudoeste 27 Sur 0 -- -- 56
2019-03-09 15:00:00 13.6 14 Sur 30 Sur 0 -- -- 57
2019-03-09 14:00:00 12.4 17 Sur 29 Sur 0 -- -- 58
2019-03-09 13:00:00 11.9 16 Sur 27 Sur 0 -- -- 59
2019-03-09 12:00:00 11.4 15 Sur 26 Sudoeste 0 -- -- 58
2019-03-09 11:00:00 10.6 11 Sur 17 Sur 0 -- -- 55
2019-03-09 10:00:00 6.8 4 Sudoeste 6 Sur 0 -- -- 69
2019-03-09 09:00:00 -2 0 Calma 10 Sudoeste 0 -- -- 98
2019-03-09 08:00:00 -3.8 3 Sudoeste 8 Sur 0 -- -- 99
2019-03-09 07:00:00 -3.9 0 Calma 4 Sur 0 -- -- 99
2019-03-09 06:00:00 -3.4 2 Sudeste 7 Sur 0 -- -- 98
2019-03-09 05:00:00 -3.7 0 Calma 5 Sudoeste 0 -- -- 97
2019-03-09 04:00:00 -3.5 2 Sur 4 Sudeste 0 -- -- 98
2019-03-09 03:00:00 -3 3 Sur 6 Sudoeste 0 -- -- 96
2019-03-09 02:00:00 -2.6 0 Calma 8 Sudeste 0 -- -- 95
2019-03-09 01:00:00 -1.5 2 Este 7 Norte 0 -- -- 93
2019-03-09 00:00:00 -1.4 3 Noroeste 13 Norte 0 -- -- 94
2019-03-08 23:00:00 -0.2 7 Norte 15 Nordeste 0 -- -- 91
2019-03-08 22:00:00 -0.6 0 Calma 7 Sudeste 0 -- -- 92
2019-03-08 21:00:00 0.7 4 Sur 10 Sudoeste 0 -- -- 91
2019-03-08 20:00:00 2.4 4 Sudeste 8 Norte 0 -- -- 83
2019-03-08 19:00:00 6.1 9 Norte 17 Norte 0 -- -- 66
2019-03-08 18:00:00 9.9 8 Sudoeste 32 Norte 0 -- -- 67
2019-03-08 17:00:00 10.8 14 Norte 21 Norte 0 -- -- 46
2019-03-08 16:00:00 11.5 9 Sur 23 Sudoeste 0 -- -- 59
2019-03-08 15:00:00 10.7 6 Sudeste 19 Este 0 -- -- 58
2019-03-08 14:00:00 10 8 Norte 25 Norte 0 -- -- 50
2019-03-08 13:00:00 8.1 14 Norte 35 Norte 0 -- -- 56
2019-03-08 12:00:00 6.1 18 Norte 30 Norte 0 -- -- 67
2019-03-08 11:00:00 4.7 15 Norte 23 Norte 0 -- -- 79
2019-03-08 10:00:00 2.4 10 Nordeste 19 Nordeste 0 -- -- 93
2019-03-08 09:00:00 -1.4 2 Norte 6 Nordeste 0 -- -- 99
2019-03-08 08:00:00 -1.4 0 Calma 4 Nordeste 0 -- -- 99
2019-03-08 07:00:00 -0.6 0 Calma 3 Sudoeste 0 -- -- 99
2019-03-08 06:00:00 -1.2 0 Calma 3 Sudeste 0 -- -- 99
2019-03-08 05:00:00 -0.1 0 Calma 7 Sudoeste 0 -- -- 98
2019-03-08 04:00:00 0.7 2 Norte 5 Noroeste 0 -- -- 98
2019-03-08 03:00:00 0.8 3 Sudeste 7 Sur 0 -- -- 98
2019-03-08 02:00:00 0.7 2 Este 15 Sur 0 -- -- 98
2019-03-08 01:00:00 2 6 Sudoeste 19 Sur 0 -- -- 98
2019-03-08 00:00:00 2.2 8 Sur 36 Sur 0 -- -- 96
2019-03-07 23:00:00 2.6 14 Sur 30 Sur 0 -- -- 94
2019-03-07 22:00:00 2.6 13 Sur 32 Sudeste 0.2 -- -- 94
2019-03-07 21:00:00 2.5 19 Sur 33 Sudeste 0 -- -- 93
2019-03-07 20:00:00 2.5 11 Sur 32 Sur 0 -- -- 90
2019-03-07 19:00:00 2.8 13 Sur 30 Sudoeste 0 -- -- 89
2019-03-07 18:00:00 3.5 16 Sur 35 Sudoeste 0 -- -- 84
2019-03-07 17:00:00 4.2 19 Sur 37 Sur 0 -- -- 83
2019-03-07 16:00:00 4.2 17 Sur 33 Sudoeste 0 -- -- 84
2019-03-07 15:00:00 5.7 19 Sur 37 Sudoeste 0 -- -- 67
2019-03-07 14:00:00 5.8 18 Sur 35 Sur 0 -- -- 67
2019-03-07 13:00:00 4.7 19 Sur 31 Sudoeste 0 -- -- 61
2019-03-07 12:00:00 4.9 17 Sur 29 Sur 0 -- -- 56
2019-03-07 11:00:00 5.4 9 Norte 21 Norte 0 -- -- 41
2019-03-07 10:00:00 4 3 Nordeste 8 Este 0 -- -- 52
2019-03-07 09:00:00 -3.7 4 Sur 8 Sudoeste 0 -- -- 93
2019-03-07 08:00:00 -2.5 0 Calma 13 Este 0 -- -- 90
2019-03-07 07:00:00 -1.4 4 Nordeste 18 Norte 0 -- -- 84
2019-03-07 06:00:00 -1.5 2 Norte 17 Este 0 -- -- 86
2019-03-07 05:00:00 0.1 8 Este 14 Sudoeste 0 -- -- 80
2019-03-07 04:00:00 0.2 3 Sudeste 20 Norte 0 -- -- 79
2019-03-07 03:00:00 0.4 10 Norte 22 Norte 0 -- -- 79
2019-03-07 02:00:00 1 7 Noroeste 26 Norte 0 -- -- 87
2019-03-07 01:00:00 1.2 10 Norte 20 Norte 0 -- -- 87
2019-03-07 00:00:00 1.6 9 Norte 26 Norte 0 -- -- 83
2019-03-06 23:00:00 1.8 16 Norte 31 Nordeste 0.4 -- -- 88
2019-03-06 22:00:00 2.2 10 Norte 36 Norte 0 -- -- 84
2019-03-06 21:00:00 2.8 5 Sudoeste 21 Norte 0 -- -- 85
2019-03-06 20:00:00 3.4 9 Oeste 30 Sudoeste 0 -- -- 79
2019-03-06 19:00:00 3.7 8 Sudoeste 25 Sur 0 -- -- 80
2019-03-06 18:00:00 5.3 12 Sudoeste 39 Sudoeste 0 -- -- 66
2019-03-06 17:00:00 6.3 10 Norte 30 Sudoeste 0 -- -- 66
2019-03-06 16:00:00 6.9 10 Oeste 30 Sudoeste 0 -- -- 79
2019-03-06 15:00:00 5 18 Sur 38 Oeste 0.2 -- -- 99
2019-03-06 14:00:00 4.2 12 Sudoeste 48 Sudoeste 3.6 -- -- 97
2019-03-06 13:00:00 4.5 22 Sudoeste 55 Sudoeste 9 -- -- 97
2019-03-06 12:00:00 4.6 14 Sudoeste 44 Oeste 2.4 -- -- 100
2019-03-06 11:00:00 3.7 22 Sudoeste 42 Sudoeste 13.2 -- -- 99
2019-03-06 10:00:00 4.4 19 Sudoeste 45 Sudoeste 16 -- -- 100
2019-03-06 09:00:00 4.1 19 Sur 42 Sudoeste 13.2 -- -- 100
2019-03-06 08:00:00 4.1 24 Sur 63 Sur 5.4 -- -- 98
2019-03-06 07:00:00 5.1 34 Sur 66 Sudoeste 0 -- -- 97
2019-03-06 06:00:00 4.7 35 Sur 71 Sudoeste 0 -- -- 98
2019-03-06 05:00:00 5.6 39 Sur 77 Sur 0 -- -- 100
2019-03-06 04:00:00 6.2 33 Sur 68 Sur 0.2 -- -- 100
2019-03-06 03:00:00 7 25 Sur 57 Sudoeste 2.4 -- -- 100
2019-03-06 02:00:00 6.9 15 Sudoeste 42 Oeste 7.4 -- -- 100
2019-03-06 01:00:00 7.1 16 Sudoeste 44 Sudoeste 3.6 -- -- 99
2019-03-06 00:00:00 6.9 19 Sudoeste 38 Sudoeste 6 -- -- 99
2019-03-05 23:00:00 6.9 18 Sur 39 Sudoeste 9 -- -- 99
2019-03-05 22:00:00 6.6 16 Sudoeste 48 Sudoeste 2.2 -- -- 99
2019-03-05 21:00:00 6.2 14 Sudoeste 36 Sur 1.4 -- -- 99
2019-03-05 20:00:00 5.5 10 Sur 27 Sudoeste 3 -- -- 98
2019-03-05 19:00:00 5.9 11 Sudoeste 38 Sur 0.6 -- -- 94
2019-03-05 18:00:00 5.9 16 Sudoeste 40 Sur 0 -- -- 92
2019-03-05 17:00:00 6.6 18 Sur 42 Sudoeste 0 -- -- 86
2019-03-05 16:00:00 7.3 21 Sur 45 Sur 0 -- -- 79
2019-03-05 15:00:00 6.4 22 Sur 37 Sur 0 -- -- 84
2019-03-05 14:00:00 6.7 21 Sur 37 Sur 0 -- -- 84
2019-03-05 13:00:00 6 19 Sur 37 Sur 0 -- -- 85
2019-03-05 12:00:00 6.4 16 Sur 32 Sur 0 -- -- 79
2019-03-05 11:00:00 6.1 17 Sur 29 Sudoeste 0 -- -- 79
2019-03-05 10:00:00 5.8 10 Sur -- -- -- -- -- 80
2019-03-05 09:00:00 -1.4 0 Calma 10 Sur 0 -- -- 96
2019-03-05 08:00:00 -0.8 5 Sur 10 Sudeste 0 -- -- 96
2019-03-05 07:00:00 1 7 Sur 18 Sudoeste 0 -- -- 91
2019-03-05 06:00:00 3.1 14 Sur 26 Sur 0 -- -- 87
2019-03-05 05:00:00 3.2 5 Sudoeste 14 Sudoeste 0 -- -- 88
2019-03-05 04:00:00 2.6 6 Sudeste 8 Nordeste 0 -- -- 89
2019-03-05 03:00:00 2.6 0 Calma 5 Sudeste 0 -- -- 88
2019-03-05 02:00:00 4.1 4 Oeste 16 Oeste 0 -- -- 81
2019-03-05 01:00:00 3.7 4 Sudoeste 10 Este 0 -- -- 81
2019-03-05 00:00:00 4.6 4 Norte 23 Sur 0 -- -- 78
2019-03-04 23:00:00 5.1 12 Sur 24 Sudoeste 0 -- -- 78
2019-03-04 22:00:00 5 6 Oeste 18 Sudoeste 0 -- -- 88
2019-03-04 21:00:00 4.9 9 Sur 18 Sur 0 -- -- 87
2019-03-04 20:00:00 5.5 10 Sur 21 Sur 0 -- -- 85
2019-03-04 19:00:00 6.4 13 Sur 31 Sur 0 -- -- 81
2019-03-04 18:00:00 8 14 Sur 35 Sur 0 -- -- 75
2019-03-04 17:00:00 8.6 20 Sur 37 Sur 0 -- -- 72
2019-03-04 16:00:00 8.7 21 Sur 36 Sur 0 -- -- 78
2019-03-04 15:00:00 7.8 19 Sur 32 Sur 0 -- -- 87
2019-03-04 14:00:00 7.9 17 Sur 35 Sur 0 -- -- 86
2019-03-04 13:00:00 8.6 21 Sur 36 Sudoeste 0 -- -- 79
2019-03-04 12:00:00 7.8 19 Sur 31 Sudoeste 0 -- -- 83
2019-03-04 11:00:00 6.9 19 Sur 31 Sur 0 -- -- 90
2019-03-04 10:00:00 6.4 13 Sur 26 Sur 0 -- -- 95
2019-03-04 09:00:00 5.3 12 Sur 22 Sur 0 -- -- 98
2019-03-04 08:00:00 4.9 13 Sur 22 Sur 0 -- -- 97
2019-03-04 07:00:00 4.7 15 Sur 33 Sur 0 -- -- 95
2019-03-04 06:00:00 4.6 14 Sur 32 Sur 0 -- -- 90
2019-03-04 05:00:00 4.6 22 Sur 33 Sudeste 0 -- -- 88
2019-03-04 04:00:00 4.6 13 Sur 29 Sur 0 -- -- 81
2019-03-04 03:00:00 5.3 14 Sur 27 Sur 0 -- -- 57
2019-03-04 02:00:00 4.9 11 Sur 23 Sur 0 -- -- 58
2019-03-04 01:00:00 6.7 11 Sur 27 Sudoeste 0 -- -- 49
2019-03-04 00:00:00 6.3 12 Sur 21 Sudoeste 0 -- -- 56
2019-03-03 23:00:00 7.7 8 Sudoeste 39 Sur 0 -- -- 57
2019-03-03 22:00:00 9.2 18 Sudoeste 42 Sudoeste 0 -- -- 48
2019-03-03 21:00:00 8.7 18 Sur 34 Sudoeste 0 -- -- 55
2019-03-03 20:00:00 8.9 12 Sudoeste 32 Oeste 0 -- -- 60
2019-03-03 19:00:00 10.5 15 Sudoeste 35 Sur 0 -- -- 50
2019-03-03 18:00:00 11.4 14 Sur 41 Sur 0 -- -- 52
2019-03-03 17:00:00 12.4 21 Sur 44 Sur 0 -- -- 42
2019-03-03 16:00:00 12 26 Sur 45 Sur 0 -- -- 49
2019-03-03 15:00:00 14 24 Sur 45 Sur 0 -- -- 48
2019-03-03 14:00:00 13.6 19 Sur 41 Sudoeste 0 -- -- 51
2019-03-03 13:00:00 13.5 21 Sur 42 Sur 0 -- -- 49
2019-03-03 12:00:00 12.7 22 Sur 39 Sur 0 -- -- 50
2019-03-03 11:00:00 11.9 19 Sur 37 Sur 0 -- -- 53
2019-03-03 10:00:00 11.8 14 Sur 28 Sur 0 -- -- 48
2019-03-03 09:00:00 2.9 9 Sudoeste 30 Sur 0 -- -- 87
2019-03-03 08:00:00 -5.1 3 Nordeste 5 Nordeste 0 -- -- 93
2019-03-03 07:00:00 -5.8 0 Calma 4 Sudoeste 0 -- -- 93
2019-03-03 06:00:00 -5.5 0 Calma 4 Sur 0 -- -- 95
2019-03-03 05:00:00 -5 2 Sur 5 Sur 0 -- -- 93
2019-03-03 04:00:00 -4.3 2 Sur 5 Sur 0 -- -- 92
2019-03-03 03:00:00 -3.8 0 Calma 6 Sur 0 -- -- 88
2019-03-03 02:00:00 -3.3 4 Sur 7 Sur 0 -- -- 87
2019-03-03 01:00:00 -2.1 2 Sur 9 Sudoeste 0 -- -- 83
2019-03-03 00:00:00 -1.7 2 Sur 6 Sur 0 -- -- 84
2019-03-02 23:00:00 0.4 0 Calma 8 Sudoeste 0 -- -- 77
2019-03-02 22:00:00 2.2 4 Sur 6 Sur 0 -- -- 69
2019-03-02 21:00:00 4.1 4 Sudeste 10 Sudeste 0 -- -- 61
2019-03-02 20:00:00 4.6 4 Sudeste 10 Sudeste 0 -- -- 60
2019-03-02 19:00:00 7.8 5 Sur 16 Sudoeste 0 -- -- 57
2019-03-02 18:00:00 14.1 9 Sudoeste 22 Sudoeste 0 -- -- 53
2019-03-02 17:00:00 15.3 14 Sudoeste 26 Sur 0 -- -- 46
2019-03-02 16:00:00 15.1 15 Sur 31 Sudoeste 0 -- -- 47
2019-03-02 15:00:00 15.2 15 Sur 29 Sudoeste 0 -- -- 48
2019-03-02 14:00:00 15.1 15 Sur 22 Sudoeste 0 -- -- 47
2019-03-02 13:00:00 14.8 5 Nordeste 16 Norte 0 -- -- 32
2019-03-02 12:00:00 12.9 11 Norte 19 Norte 0 -- -- 46
2019-03-02 11:00:00 10.7 14 Norte 19 Norte 0 -- -- 61
2019-03-02 10:00:00 9.9 0 Calma 9 Nordeste 0 -- -- 62
2019-03-02 09:00:00 0.3 4 Sur 6 Sudeste 0 -- -- 97
2019-03-02 08:00:00 -0.5 0 Calma 12 Sudeste 0 -- -- 92
2019-03-02 07:00:00 1.1 2 Norte 10 Nordeste 0 -- -- 90
2019-03-02 06:00:00 2.3 5 Nordeste 12 Nordeste 0 -- -- 88
2019-03-02 05:00:00 3.9 4 Norte 19 Nordeste 0 -- -- 83
2019-03-02 04:00:00 5.5 15 Nordeste 23 Nordeste 0 -- -- 79
2019-03-02 03:00:00 5.3 10 Nordeste 17 Nordeste 0 -- -- 83
2019-03-02 02:00:00 1.2 3 Norte 8 Nordeste 0 -- -- 92
2019-03-02 01:00:00 2.5 0 Calma 8 Nordeste 0 -- -- 88
2019-03-02 00:00:00 4.6 2 Nordeste 8 Este 0 -- -- 80
2019-03-01 23:00:00 6.3 7 Norte 14 Norte 0 -- -- 67
2019-03-01 22:00:00 5 3 Nordeste 8 Norte 0 -- -- 64
2019-03-01 21:00:00 5.8 2 Sudoeste 8 Este 0 -- -- 59
2019-03-01 20:00:00 5.7 4 Sur 12 Noroeste 0 -- -- 57
2019-03-01 19:00:00 10.2 10 Norte 22 Norte 0 -- -- 42
2019-03-01 18:00:00 13.9 14 Norte 25 Norte 0 -- -- 33
2019-03-01 17:00:00 13 10 Sudoeste 26 Sudoeste 0 -- -- 47
2019-03-01 16:00:00 13.3 13 Sur 28 Sudoeste 0 -- -- 46
2019-03-01 15:00:00 13.6 13 Sur 27 Sur 0 -- -- 44
2019-03-01 14:00:00 13.4 14 Sur 28 Sur 0 -- -- 43
2019-03-01 13:00:00 13.2 15 Sur 24 Sur 0 -- -- 40
2019-03-01 12:00:00 12.2 12 Sur 21 Sur 0 -- -- 40
2019-03-01 11:00:00 10.9 0 Calma 3 Este 0 -- -- 48
2019-03-01 10:00:00 5.4 0 Calma 3 Sur 0 -- -- 74
2019-03-01 09:00:00 -5 3 Sur 5 Sur 0 -- -- 98
2019-03-01 08:00:00 -5.4 0 Calma 5 Sur 0 -- -- 99
2019-03-01 07:00:00 -5.4 0 Calma 5 Sudoeste 0 -- -- 98
2019-03-01 06:00:00 -5.5 3 Sur 4 Sudoeste 0 -- -- 96
2019-03-01 05:00:00 -4.8 0 Calma 4 Sudeste 0 -- -- 97
2019-03-01 04:00:00 -4.4 0 Calma 3 Sur 0 -- -- 96
2019-03-01 03:00:00 -3.3 0 Calma 3 Sur 0 -- -- 93
2019-03-01 02:00:00 -3 2 Sur 4 Sudoeste 0 -- -- 91
2019-03-01 01:00:00 -2.7 3 Sur 5 Sudoeste 0 -- -- 90
2019-03-01 00:00:00 -1 0 Calma 5 Sudeste 0 -- -- 86
2019-02-28 23:00:00 0.2 0 Calma 4 Sur 0 -- -- 85
2019-02-28 22:00:00 0.7 0 Calma 8 Sudeste 0 -- -- 77
2019-02-28 21:00:00 2.6 0 Calma 7 Sudeste 0 -- -- 71
2019-02-28 20:00:00 5.3 4 Norte 13 Nordeste 0 -- -- 62
2019-02-28 19:00:00 9 7 Norte 13 Este 0 -- -- 53
2019-02-28 18:00:00 11.9 5 Nordeste 14 Nordeste 0 -- -- 43
2019-02-28 17:00:00 13.1 4 Noroeste 18 Sur 0 -- -- 41
2019-02-28 16:00:00 12.3 11 Sur 20 Sudoeste 0 -- -- 49
2019-02-28 15:00:00 13.3 12 Sur 24 Sur 0 -- -- 43
2019-02-28 14:00:00 13.5 13 Sudoeste 22 Sur 0 -- -- 40
2019-02-28 13:00:00 14.5 6 Norte 17 Norte 0 -- -- 37
2019-02-28 12:00:00 12.1 8 Norte 13 Norte 0 -- -- 44
2019-02-28 11:00:00 9.7 3 Norte 6 Norte 0 -- -- 52
2019-02-28 10:00:00 3.9 0 Calma 4 Sudeste 0 -- -- 77
2019-02-28 09:00:00 -3.7 0 Calma 4 Sur 0 -- -- 97
2019-02-28 08:00:00 -5.1 2 Sur 5 Sudoeste 0 -- -- 95
2019-02-28 07:00:00 -5.4 2 Sur 4 Sur 0 -- -- 99
2019-02-28 06:00:00 -4.9 0 Calma 4 Sudoeste 0 -- -- 98
2019-02-28 05:00:00 -5.2 0 Calma 4 Sur 0 -- -- 99
2019-02-28 04:00:00 -4.5 3 Sur 4 Sudoeste 0 -- -- 98
2019-02-28 03:00:00 -4.4 0 Calma 4 Sur 0 -- -- 96
2019-02-28 02:00:00 -4.1 2 Sur 4 Sur 0 -- -- 95
2019-02-28 01:00:00 -3.8 3 Sur 5 Sudoeste 0 -- -- 91
2019-02-28 00:00:00 -2.8 0 Calma 4 Sudoeste 0 -- -- 91
2019-02-27 23:00:00 -2.2 0 Calma 4 Sudeste 0 -- -- 83
2019-02-27 22:00:00 -0.3 4 Sur 6 Sudeste 0 -- -- 77
2019-02-27 21:00:00 1.8 4 Sur 13 Sudoeste 0 -- -- 69
2019-02-27 20:00:00 3.1 3 Sur 12 Sudoeste 0 -- -- 67
2019-02-27 19:00:00 7.8 5 Sur 17 Sur 0 -- -- 54
2019-02-27 18:00:00 11 10 Sur 23 Sur 0 -- -- 40
2019-02-27 17:00:00 14.3 10 Sur 24 Oeste 0 -- -- 27
2019-02-27 16:00:00 14.7 11 Sur 29 Sur 0 -- -- 21
2019-02-27 15:00:00 14.6 13 Sur 28 Sur 0 -- -- 25
2019-02-27 14:00:00 14.1 16 Sur 32 Sur 0 -- -- 25
2019-02-27 13:00:00 13.6 13 Sur 32 Sur 0 -- -- 24
2019-02-27 12:00:00 13.4 13 Sur 29 Sur 0 -- -- 24
2019-02-27 11:00:00 12.8 9 Sur 19 Sudoeste 0 -- -- 32
2019-02-27 10:00:00 5.5 0 Calma 3 Nordeste 0 -- -- 52
2019-02-27 09:00:00 -4.5 0 Calma 7 Sur 0 -- -- 91
2019-02-27 08:00:00 -5.8 0 Calma 5 Sur 0 -- -- 93
2019-02-27 07:00:00 -5.5 3 Sur 8 Sur 0 -- -- 91
2019-02-27 06:00:00 -5.2 2 Sur 5 Sudeste 0 -- -- 89
2019-02-27 05:00:00 -4.5 0 Calma 6 Sudoeste 0 -- -- 85
2019-02-27 04:00:00 -4 0 Calma 6 Sudeste 0 -- -- 84
2019-02-27 03:00:00 -3.6 3 Sur 8 Sudoeste 0 -- -- 80
2019-02-27 02:00:00 -2.6 2 Sur 10 Sur 0 -- -- 75
2019-02-27 01:00:00 -1 2 Este 10 Sur 0 -- -- 71
2019-02-27 00:00:00 -0.3 2 Nordeste 10 Sudeste 0 -- -- 67
2019-02-26 23:00:00 1.1 5 Nordeste 9 Nordeste 0 -- -- 63
2019-02-26 22:00:00 1.7 4 Sur 11 Sudoeste 0 -- -- 64
2019-02-26 21:00:00 2.4 4 Sur 10 Sur 0 -- -- 63
2019-02-26 20:00:00 3.6 0 Calma 11 Sudeste 0 -- -- 58
2019-02-26 19:00:00 7 3 Sur 17 Sudoeste 0 -- -- 51
2019-02-26 18:00:00 14.1 8 Sudoeste 22 Oeste 0 -- -- 33
2019-02-26 17:00:00 15 12 Sudoeste 24 Sudoeste 0 -- -- 30
2019-02-26 16:00:00 15.1 12 Sudoeste 28 Sudoeste 0 -- -- 26
2019-02-26 15:00:00 14.5 14 Sudoeste 29 Sudoeste 0 -- -- 35
2019-02-26 14:00:00 14.6 15 Sudoeste 31 Sudoeste 0 -- -- 33
2019-02-26 13:00:00 13.8 16 Sur 33 Sudoeste 0 -- -- 35
2019-02-26 12:00:00 13.4 13 Sur 30 Sudoeste 0 -- -- 39
2019-02-26 11:00:00 11 9 Sur 19 Sudeste 0 -- -- 52
2019-02-26 10:00:00 3.4 2 Norte 6 Sudeste 0 -- -- 88
2019-02-26 09:00:00 -4.3 0 Calma 5 Sudoeste 0 -- -- 98
2019-02-26 08:00:00 -5.1 0 Calma 7 Sudoeste 0 -- -- 97
2019-02-26 07:00:00 -4.8 3 Sur 5 Sudeste 0 -- -- 97
2019-02-26 06:00:00 -4.5 0 Calma 6 Sudoeste 0 -- -- 97
2019-02-26 05:00:00 -3.7 3 Sur 5 Sudoeste 0 -- -- 98
2019-02-26 04:00:00 -4.1 0 Calma 4 Sudoeste 0 -- -- 96
2019-02-26 03:00:00 -3.4 0 Calma 5 Sur 0 -- -- 98
2019-02-26 02:00:00 -2.8 0 Calma 5 Sur 0 -- -- 95
2019-02-26 01:00:00 -2 2 Sudeste 6 Sur 0 -- -- 93
2019-02-26 00:00:00 -1.4 0 Calma 4 Sur 0 -- -- 95
2019-02-25 23:00:00 -0.8 2 Sur 5 Sur 0 -- -- 90
2019-02-25 22:00:00 0.2 0 Calma 4 Sudeste 0 -- -- 82
2019-02-25 21:00:00 2.1 3 Sur 5 Sur 0 -- -- 75
2019-02-25 20:00:00 3.8 4 Sur 12 Sur 0 -- -- 72
2019-02-25 19:00:00 9 7 Sur 21 Sur 0 -- -- 63
2019-02-25 18:00:00 13.8 13 Sur 26 Sudoeste 0 -- -- 49
2019-02-25 17:00:00 15.4 16 Sur 28 Sudoeste 0 -- -- 43
2019-02-25 16:00:00 15.6 16 Sur 27 Sur 0 -- -- 41
2019-02-25 15:00:00 15 18 Sur 29 Sudoeste 0 -- -- 41
2019-02-25 14:00:00 14.8 16 Sur 31 Sudoeste 0 -- -- 43
2019-02-25 13:00:00 14.2 16 Sur 30 Sudoeste 0 -- -- 40
2019-02-25 12:00:00 14 13 Sur 22 Sur 0 -- -- 36
2019-02-25 11:00:00 10.1 2 Norte 5 Norte 0 -- -- 51
2019-02-25 10:00:00 4.1 0 Calma 3 Sur 0 -- -- 85
2019-02-25 09:00:00 -4.9 0 Calma 3 Sudoeste 0 -- -- 99
2019-02-25 08:00:00 -5.7 2 Sur 5 Sur 0 -- -- 96
2019-02-25 07:00:00 -5.8 0 Calma 4 Sur 0 -- -- 95
2019-02-25 06:00:00 -5.3 2 Sur 7 Sudoeste 0 -- -- 97
2019-02-25 05:00:00 -4.8 0 Calma 4 Sudoeste 0 -- -- 96
2019-02-25 04:00:00 -4.9 3 Sur 6 Sudoeste 0 -- -- 96
2019-02-25 03:00:00 -4.5 0 Calma 6 Sudoeste 0 -- -- 95
2019-02-25 02:00:00 -3.8 0 Calma 5 Sudeste 0 -- -- 93
2019-02-25 01:00:00 -3 2 Sur 8 Sudoeste 0 -- -- 93
2019-02-25 00:00:00 -2.3 0 Calma 8 Sudeste 0 -- -- 91
2019-02-24 23:00:00 -1.3 3 Sur 7 Sur 0 -- -- 84
2019-02-24 22:00:00 -0.8 2 Sudeste 6 Sur 0 -- -- 81
2019-02-24 21:00:00 1.7 4 Sur 9 Sur 0 -- -- 72
2019-02-24 20:00:00 3.9 2 Sur 9 Sur 0 -- -- 66
2019-02-24 19:00:00 9.5 4 Sur 23 Sudoeste 0 -- -- 50
2019-02-24 18:00:00 13.7 10 Sur 25 Sudoeste 0 -- -- 40
2019-02-24 17:00:00 15.1 15 Sur 27 Sudoeste 0 -- -- 37
2019-02-24 16:00:00 15.3 15 Sur 25 Sudoeste 0 -- -- 37
2019-02-24 15:00:00 15.7 13 Sur 26 Sur 0 -- -- 37
2019-02-24 14:00:00 15.3 11 Sudoeste 22 Sudoeste 0 -- -- 36
2019-02-24 13:00:00 14.6 9 Sudoeste 18 Norte 0 -- -- 37
2019-02-24 12:00:00 12.8 8 Norte 17 Norte 0 -- -- 37
2019-02-24 11:00:00 10.1 6 Norte 9 Norte 0 -- -- 49
2019-02-24 10:00:00 4.7 0 Calma 6 Nordeste 0 -- -- 65
2019-02-24 09:00:00 -4.2 0 Calma 3 Sudoeste 0 -- -- 96
2019-02-24 08:00:00 -4.6 0 Calma 7 Sur 0 -- -- 95
2019-02-24 07:00:00 -4 0 Calma 5 Sur 0 -- -- 93
2019-02-24 06:00:00 -3.2 2 Sur 5 Sur 0 -- -- 91
2019-02-24 05:00:00 -2.7 3 Sur 6 Sudoeste 0 -- -- 90
2019-02-24 04:00:00 -2.7 0 Calma 6 Sudoeste 0 -- -- 87
2019-02-24 03:00:00 -1.9 3 Sur 5 Sur 0 -- -- 86
2019-02-24 02:00:00 -0.3 0 Calma 4 Sudeste 0 -- -- 81
2019-02-24 01:00:00 0.6 0 Calma 7 Este 0 -- -- 76
2019-02-24 00:00:00 0.9 2 Norte 6 Norte 0 -- -- 73
2019-02-23 23:00:00 0.2 2 Sur 6 Este 0 -- -- 76
2019-02-23 22:00:00 0 0 Calma 8 Sudeste 0 -- -- 74
2019-02-23 21:00:00 2.5 2 Sudeste 7 Sudeste 0 -- -- 65
2019-02-23 20:00:00 4.7 3 Sur 8 Sudeste 0 -- -- 56
2019-02-23 19:00:00 9.9 5 Nordeste 14 Norte 0 -- -- 41
2019-02-23 18:00:00 12.9 12 Norte 22 Norte 0 -- -- 35
2019-02-23 17:00:00 14.2 20 Norte 30 Norte 0 -- -- 31
2019-02-23 16:00:00 14.9 23 Norte 33 Norte 0 -- -- 26
2019-02-23 15:00:00 15.3 17 Norte 24 Nordeste 0 -- -- 25
2019-02-23 14:00:00 13.8 13 Norte 26 Norte 0 -- -- 35
2019-02-23 13:00:00 12.6 18 Norte 25 Norte 0 -- -- 35
2019-02-23 12:00:00 12.9 15 Norte 22 Norte 0 -- -- 32
2019-02-23 11:00:00 10.2 4 Norte 8 Norte 0 -- -- 43
2019-02-23 10:00:00 4.2 0 Calma 4 Sur 0 -- -- 62
2019-02-23 09:00:00 -4 0 Calma 4 Sudoeste 0 -- -- 88
2019-02-23 08:00:00 -6 0 Calma 6 Sudoeste 0 -- -- 91
2019-02-23 07:00:00 -6.2 0 Calma 5 Sudeste 0 -- -- 92
2019-02-23 06:00:00 -6.9 2 Sur 5 Sudoeste 0 -- -- 92
2019-02-23 05:00:00 -6.5 2 Sur 4 Sudoeste 0 -- -- 93
2019-02-23 04:00:00 -6.9 0 Calma 4 Sudoeste 0 -- -- 91
2019-02-23 03:00:00 -5.7 2 Sur 3 Sur 0 -- -- 91
2019-02-23 02:00:00 -5.3 2 Sur 5 Sur 0 -- -- 91
2019-02-23 01:00:00 -5.4 0 Calma 4 Sudoeste 0 -- -- 92
2019-02-23 00:00:00 -4.4 0 Calma 5 Sur 0 -- -- 84
2019-02-22 23:00:00 -3.9 3 Sur 6 Sur 0 -- -- 83
2019-02-22 22:00:00 -1.9 0 Calma 5 Sudoeste 0 -- -- 75
2019-02-22 21:00:00 0 4 Sur 6 Sur 0 -- -- 67
2019-02-22 20:00:00 3.7 5 Sur 9 Sudoeste 0 -- -- 55
2019-02-22 19:00:00 8.5 6 Sur 22 Sur 0 -- -- 42
2019-02-22 18:00:00 12.1 13 Sur 30 Sur 0 -- -- 34
2019-02-22 17:00:00 13.1 17 Sur 32 Sur 0 -- -- 33
2019-02-22 16:00:00 14.1 14 Sur 24 Sudoeste 0 -- -- 27
2019-02-22 15:00:00 13.9 13 Sur 27 Sur 0 -- -- 26
2019-02-22 14:00:00 13 14 Sudoeste 36 Sudoeste 0 -- -- 30
2019-02-22 13:00:00 12.3 12 Sur 27 Sudoeste 0 -- -- 31
2019-02-22 12:00:00 12 10 Sur 22 Sudoeste 0 -- -- 30
2019-02-22 11:00:00 6.3 5 Norte 9 Norte 0 -- -- 65
2019-02-22 10:00:00 0.4 3 Nordeste 8 Nordeste 0 -- -- 80
2019-02-22 09:00:00 -5.8 0 Calma 5 Sudoeste 0 -- -- 97
2019-02-22 08:00:00 -6 0 Calma 10 Sur 0 -- -- 93
2019-02-22 07:00:00 -6.8 0 Calma 7 Sur 0 -- -- 95
2019-02-22 06:00:00 -5.9 2 Sur 12 Sudoeste 0 -- -- 96
2019-02-22 05:00:00 -5.8 4 Sur 8 Sudoeste 0 -- -- 95
2019-02-22 04:00:00 -5.9 2 Sudeste 8 Sudoeste 0 -- -- 96
2019-02-22 03:00:00 -5.5 2 Sudeste 7 Sudoeste 0 -- -- 97
2019-02-22 02:00:00 -5.5 2 Sur 6 Sudoeste 0 -- -- 96
2019-02-22 01:00:00 -5.1 3 Sur 7 Sur 0 -- -- 94
2019-02-22 00:00:00 -3.6 2 Noroeste 8 Sudeste 0 -- -- 92
2019-02-21 23:00:00 -3.2 3 Sur 6 Sudeste 0 -- -- 91
2019-02-21 22:00:00 -2.5 4 Sur 6 Sudoeste 0 -- -- 88
2019-02-21 21:00:00 -1.5 2 Sur 10 Sudoeste 0 -- -- 85
2019-02-21 20:00:00 0.4 7 Sur 10 Sur 0 -- -- 78
2019-02-21 19:00:00 4.3 3 Sur 11 Sudoeste 0 -- -- 63
2019-02-21 18:00:00 10.7 5 Sudoeste 23 Sudoeste 0 -- -- 42
2019-02-21 17:00:00 12.2 10 Sur 23 Sudoeste 0 -- -- 37
2019-02-21 16:00:00 11.9 12 Sudoeste 28 Sudoeste 0 -- -- 39
2019-02-21 15:00:00 11.7 12 Sudoeste 27 Sudoeste 0 -- -- 44
2019-02-21 14:00:00 11.4 13 Sudoeste 26 Sur 0 -- -- 46
2019-02-21 13:00:00 10.8 13 Sudoeste 28 Sudoeste 0 -- -- 49
2019-02-21 12:00:00 10 12 Sur 22 Sur 0 -- -- 55
2019-02-21 11:00:00 5.6 4 Norte 8 Nordeste 0 -- -- 82
2019-02-21 10:00:00 0.7 0 Calma 5 Nordeste 0 -- -- 95
2019-02-21 09:00:00 -4.6 3 Sur 5 Sudeste 0 -- -- 98
2019-02-21 08:00:00 -5.7 0 Calma 4 Sur 0 -- -- 96
2019-02-21 07:00:00 -5.2 0 Calma 4 Sudoeste 0 -- -- 98
2019-02-21 06:00:00 -5.6 0 Calma 5 Sudoeste 0 -- -- 97
2019-02-21 05:00:00 -5.3 0 Calma 4 Sur 0 -- -- 99
2019-02-21 04:00:00 -5.4 0 Calma 3 Sur 0 -- -- 99
2019-02-21 03:00:00 -5.1 0 Calma 3 Sudoeste 0 -- -- 99
2019-02-21 02:00:00 -4.5 2 Sur 4 Sur 0 -- -- 98
2019-02-21 01:00:00 -4.2 0 Calma 4 Sudoeste 0 -- -- 98
2019-02-21 00:00:00 -3.7 0 Calma 5 Sur 0 -- -- 97
2019-02-20 23:00:00 -2.7 2 Sur 6 Sudeste 0 -- -- 96
2019-02-20 22:00:00 -1.2 5 Sur 9 Sudoeste 0 -- -- 95
2019-02-20 21:00:00 -0.2 3 Sur 8 Sudeste 0 -- -- 91
2019-02-20 20:00:00 2.9 2 Este 12 Sur 0 -- -- 85
2019-02-20 19:00:00 5.5 8 Sur 21 Sur 0 -- -- 79
2019-02-20 18:00:00 9 10 Sur 24 Sur 0 -- -- 67
2019-02-20 17:00:00 7.8 13 Sur 28 Sur 0 -- -- 72
2019-02-20 16:00:00 9.5 14 Sur 31 Sur 0 -- -- 59
2019-02-20 15:00:00 9.8 17 Sur 31 Sudoeste 0 -- -- 63
2019-02-20 14:00:00 9.3 15 Sur 28 Sur 0 -- -- 65
2019-02-20 13:00:00 8 15 Sur 27 Sur 0 -- -- 72
2019-02-20 12:00:00 6 12 Sur 24 Sur 0 -- -- 81
2019-02-20 11:00:00 6.5 4 Norte 7 Norte 0 -- -- 75
2019-02-20 10:00:00 2.2 2 Sudoeste 6 Sudoeste 0 -- -- 93
2019-02-20 09:00:00 -4.1 0 Calma 2 Este 0 -- -- 99
2019-02-20 08:00:00 -4.3 0 Calma 5 Sudoeste 0 -- -- 98
2019-02-20 07:00:00 -3.9 0 Calma 4 Sudoeste 0 -- -- 99
2019-02-20 06:00:00 -3.8 3 Sur 6 Sudoeste 0 -- -- 100
2019-02-20 05:00:00 -3.6 2 Sur 6 Sudoeste 0 -- -- 99
2019-02-20 04:00:00 -2.9 3 Norte 9 Sur 0 -- -- 98
2019-02-20 03:00:00 -3.5 0 Calma 7 Sur 0 -- -- 99
2019-02-20 02:00:00 -2.9 2 Sur 6 Oeste 0 -- -- 97
2019-02-20 01:00:00 -1.6 6 Nordeste 10 Norte 0 -- -- 99
2019-02-20 00:00:00 -2.3 2 Norte 6 Sudoeste 0 -- -- 98